Terminal Aerodrome Forecast
Issued by NWS

Home | Current Version | Previous Version | Text Only | Print | Product List | Glossary On
Versions: 1 2 3 4 5 6 7 8 9 10 11 12 13 14 15 16 17 18 19 20 21 22 23 24 25 26 27 28 29 30 31 32 33 34 35 36 37 38 39 40
604
FTAK31 PANC 270535
TAFACD
TAF
PACD 270535Z 2706/2806 14011KT P6SM BKN080
     FM272000 12008KT P6SM VCSH SCT025 BKN120
     FM280100 12015KT P6SM -RA BKN030 OVC080
     FM280530 14017KT P6SM -RA BKN015 OVC025=

USA.gov is the U.S. government's official web portal to all federal, state and local government web resources and services.